sensor_id;sensor_type;location;lat;lon;timestamp;temperature;humidity
56374;DHT22;58212;47.034;7.376;2022-12-10T00:01:04;2.70;99.90
56374;DHT22;58212;47.034;7.376;2022-12-10T00:03:32;2.60;99.90
56374;DHT22;58212;47.034;7.376;2022-12-10T00:06:00;2.60;99.90
56374;DHT22;58212;47.034;7.376;2022-12-10T00:08:27;2.60;99.90
56374;DHT22;58212;47.034;7.376;2022-12-10T00:10:54;2.60;99.90
56374;DHT22;58212;47.034;7.376;2022-12-10T00:13:24;2.50;99.90
56374;DHT22;58212;47.034;7.376;2022-12-10T00:15:51;2.50;99.90
56374;DHT22;58212;47.034;7.376;2022-12-10T00:18:19;2.50;99.90
56374;DHT22;58212;47.034;7.376;2022-12-10T00:20:46;2.50;99.90
56374;DHT22;58212;47.034;7.376;2022-12-10T00:23:13;2.50;99.90
56374;DHT22;58212;47.034;7.376;2022-12-10T00:25:40;2.50;99.90
56374;DHT22;58212;47.034;7.376;2022-12-10T00:28:07;2.60;99.90
56374;DHT22;58212;47.034;7.376;2022-12-10T00:30:34;2.70;99.90
56374;DHT22;58212;47.034;7.376;2022-12-10T00:33:01;2.60;99.90
56374;DHT22;58212;47.034;7.376;2022-12-10T00:35:30;2.50;99.90
56374;DHT22;58212;47.034;7.376;2022-12-10T00:37:57;2.50;99.90
56374;DHT22;58212;47.034;7.376;2022-12-10T00:40:24;2.50;99.90
56374;DHT22;58212;47.034;7.376;2022-12-10T00:42:51;2.60;99.90
56374;DHT22;58212;47.034;7.376;2022-12-10T00:45:20;2.60;99.90
56374;DHT22;58212;47.034;7.376;2022-12-10T00:47:49;2.70;99.90
56374;DHT22;58212;47.034;7.376;2022-12-10T00:50:16;2.70;99.90
56374;DHT22;58212;47.034;7.376;2022-12-10T00:52:45;2.70;99.90
56374;DHT22;58212;47.034;7.376;2022-12-10T00:55:12;2.70;99.90
56374;DHT22;58212;47.034;7.376;2022-12-10T00:57:39;2.60;99.90
56374;DHT22;58212;47.034;7.376;2022-12-10T01:00:07;2.50;99.90
56374;DHT22;58212;47.034;7.376;2022-12-10T01:02:34;2.50;99.90
56374;DHT22;58212;47.034;7.376;2022-12-10T01:05:01;2.50;99.90
56374;DHT22;58212;47.034;7.376;2022-12-10T01:07:30;2.50;99.90
56374;DHT22;58212;47.034;7.376;2022-12-10T01:09:58;2.50;99.90
56374;DHT22;58212;47.034;7.376;2022-12-10T01:12:25;2.10;99.90
56374;DHT22;58212;47.034;7.376;2022-12-10T01:14:54;2.10;99.90
56374;DHT22;58212;47.034;7.376;2022-12-10T01:17:21;2.40;99.90
56374;DHT22;58212;47.034;7.376;2022-12-10T01:19:48;2.50;99.90
56374;DHT22;58212;47.034;7.376;2022-12-10T01:22:15;2.50;99.90
56374;DHT22;58212;47.034;7.376;2022-12-10T01:24:42;2.40;99.90
56374;DHT22;58212;47.034;7.376;2022-12-10T01:27:11;2.40;99.90
56374;DHT22;58212;47.034;7.376;2022-12-10T01:29:38;2.50;99.90
56374;DHT22;58212;47.034;7.376;2022-12-10T01:32:07;2.50;99.90
56374;DHT22;58212;47.034;7.376;2022-12-10T01:34:38;2.50;99.90
56374;DHT22;58212;47.034;7.376;2022-12-10T01:37:05;2.50;99.90
56374;DHT22;58212;47.034;7.376;2022-12-10T01:39:34;2.50;99.90
56374;DHT22;58212;47.034;7.376;2022-12-10T01:42:01;2.40;99.90
56374;DHT22;58212;47.034;7.376;2022-12-10T01:47:33;2.50;99.90
56374;DHT22;58212;47.034;7.376;2022-12-10T01:50:04;2.50;99.90
56374;DHT22;58212;47.034;7.376;2022-12-10T01:52:32;2.50;99.90
56374;DHT22;58212;47.034;7.376;2022-12-10T01:57:51;2.60;99.90
56374;DHT22;58212;47.034;7.376;2022-12-10T02:00:18;2.60;99.90
56374;DHT22;58212;47.034;7.376;2022-12-10T02:02:52;2.40;99.90
56374;DHT22;58212;47.034;7.376;2022-12-10T02:05:26;2.40;99.90
56374;DHT22;58212;47.034;7.376;2022-12-10T02:08:03;2.50;99.90
56374;DHT22;58212;47.034;7.376;2022-12-10T02:10:42;2.50;99.90
56374;DHT22;58212;47.034;7.376;2022-12-10T02:13:17;2.60;99.90
56374;DHT22;58212;47.034;7.376;2022-12-10T02:15:49;2.60;99.90
56374;DHT22;58212;47.034;7.376;2022-12-10T02:18:24;2.50;99.90
56374;DHT22;58212;47.034;7.376;2022-12-10T02:20:56;2.40;99.90
56374;DHT22;58212;47.034;7.376;2022-12-10T02:23:28;2.40;99.90
56374;DHT22;58212;47.034;7.376;2022-12-10T02:26:02;2.40;99.90
56374;DHT22;58212;47.034;7.376;2022-12-10T02:28:39;2.50;99.90
56374;DHT22;58212;47.034;7.376;2022-12-10T02:31:15;2.50;99.90
56374;DHT22;58212;47.034;7.376;2022-12-10T02:33:48;2.10;99.90
56374;DHT22;58212;47.034;7.376;2022-12-10T02:36:18;1.90;99.90
56374;DHT22;58212;47.034;7.376;2022-12-10T02:38:49;1.80;99.90
56374;DHT22;58212;47.034;7.376;2022-12-10T02:41:25;2.10;99.90
56374;DHT22;58212;47.034;7.376;2022-12-10T02:43:54;2.20;99.90
56374;DHT22;58212;47.034;7.376;2022-12-10T02:46:28;2.30;99.90
56374;DHT22;58212;47.034;7.376;2022-12-10T02:48:58;2.20;99.90
56374;DHT22;58212;47.034;7.376;2022-12-10T02:51:27;2.20;99.90
56374;DHT22;58212;47.034;7.376;2022-12-10T02:53:59;2.40;99.90
56374;DHT22;58212;47.034;7.376;2022-12-10T02:56:33;2.40;99.90
56374;DHT22;58212;47.034;7.376;2022-12-10T02:59:09;2.50;99.90
56374;DHT22;58212;47.034;7.376;2022-12-10T03:01:53;2.50;99.90
56374;DHT22;58212;47.034;7.376;2022-12-10T03:04:25;2.40;99.90
56374;DHT22;58212;47.034;7.376;2022-12-10T03:06:58;2.40;99.90
56374;DHT22;58212;47.034;7.376;2022-12-10T03:09:29;2.40;99.90
56374;DHT22;58212;47.034;7.376;2022-12-10T03:12:06;2.40;99.90
56374;DHT22;58212;47.034;7.376;2022-12-10T03:14:35;2.30;99.90
56374;DHT22;58212;47.034;7.376;2022-12-10T03:17:05;2.50;99.90
56374;DHT22;58212;47.034;7.376;2022-12-10T03:19:36;2.60;99.90
56374;DHT22;58212;47.034;7.376;2022-12-10T03:22:05;2.60;99.90
56374;DHT22;58212;47.034;7.376;2022-12-10T03:24:34;2.60;99.90
56374;DHT22;58212;47.034;7.376;2022-12-10T03:27:03;2.60;99.90
56374;DHT22;58212;47.034;7.376;2022-12-10T03:29:34;2.60;99.90
56374;DHT22;58212;47.034;7.376;2022-12-10T03:32:04;2.50;99.90
56374;DHT22;58212;47.034;7.376;2022-12-10T03:34:32;2.50;99.90
56374;DHT22;58212;47.034;7.376;2022-12-10T03:37:00;2.20;99.90
56374;DHT22;58212;47.034;7.376;2022-12-10T03:39:27;2.00;99.90
56374;DHT22;58212;47.034;7.376;2022-12-10T03:41:54;2.10;99.90
56374;DHT22;58212;47.034;7.376;2022-12-10T03:44:28;2.20;99.90
56374;DHT22;58212;47.034;7.376;2022-12-10T03:46:56;2.30;99.90
56374;DHT22;58212;47.034;7.376;2022-12-10T03:49:25;2.20;99.90
56374;DHT22;58212;47.034;7.376;2022-12-10T03:51:52;2.10;99.90
56374;DHT22;58212;47.034;7.376;2022-12-10T03:54:19;2.20;99.90
56374;DHT22;58212;47.034;7.376;2022-12-10T03:56:49;2.30;99.90
56374;DHT22;58212;47.034;7.376;2022-12-10T03:59:16;2.40;99.90
56374;DHT22;58212;47.034;7.376;2022-12-10T04:01:44;2.40;99.90
56374;DHT22;58212;47.034;7.376;2022-12-10T04:04:11;2.40;99.90
56374;DHT22;58212;47.034;7.376;2022-12-10T04:06:40;2.30;99.90
56374;DHT22;58212;47.034;7.376;2022-12-10T04:09:10;2.20;99.90
56374;DHT22;58212;47.034;7.376;2022-12-10T04:11:37;2.30;99.90
56374;DHT22;58212;47.034;7.376;2022-12-10T04:14:04;2.40;99.90
56374;DHT22;58212;47.034;7.376;2022-12-10T04:16:48;2.40;99.90
56374;DHT22;58212;47.034;7.376;2022-12-10T04:19:18;2.40;99.90
56374;DHT22;58212;47.034;7.376;2022-12-10T04:21:46;2.40;99.90
56374;DHT22;58212;47.034;7.376;2022-12-10T04:24:32;2.30;99.90
56374;DHT22;58212;47.034;7.376;2022-12-10T04:27:20;2.40;99.90
56374;DHT22;58212;47.034;7.376;2022-12-10T04:29:47;2.40;99.90
56374;DHT22;58212;47.034;7.376;2022-12-10T04:32:15;2.30;99.90
56374;DHT22;58212;47.034;7.376;2022-12-10T04:34:43;2.40;99.90
56374;DHT22;58212;47.034;7.376;2022-12-10T04:37:11;2.40;99.90
56374;DHT22;58212;47.034;7.376;2022-12-10T04:39:42;2.40;99.90
56374;DHT22;58212;47.034;7.376;2022-12-10T04:42:09;2.30;99.90
56374;DHT22;58212;47.034;7.376;2022-12-10T04:44:36;2.40;99.90
56374;DHT22;58212;47.034;7.376;2022-12-10T04:47:03;2.40;99.90
56374;DHT22;58212;47.034;7.376;2022-12-10T04:49:31;2.50;99.90
56374;DHT22;58212;47.034;7.376;2022-12-10T04:51:58;2.50;99.90
56374;DHT22;58212;47.034;7.376;2022-12-10T04:54:27;2.50;99.90
56374;DHT22;58212;47.034;7.376;2022-12-10T04:56:54;2.50;99.90
56374;DHT22;58212;47.034;7.376;2022-12-10T04:59:24;2.60;99.90
56374;DHT22;58212;47.034;7.376;2022-12-10T05:01:52;2.60;99.90
56374;DHT22;58212;47.034;7.376;2022-12-10T05:04:19;2.60;99.90
56374;DHT22;58212;47.034;7.376;2022-12-10T05:06:48;2.60;99.90
56374;DHT22;58212;47.034;7.376;2022-12-10T05:09:16;2.60;99.90
56374;DHT22;58212;47.034;7.376;2022-12-10T05:11:44;2.50;99.90
56374;DHT22;58212;47.034;7.376;2022-12-10T05:14:12;2.50;99.90
56374;DHT22;58212;47.034;7.376;2022-12-10T05:16:40;2.40;99.90
56374;DHT22;58212;47.034;7.376;2022-12-10T05:19:08;2.50;99.90
56374;DHT22;58212;47.034;7.376;2022-12-10T05:21:35;2.50;99.90
56374;DHT22;58212;47.034;7.376;2022-12-10T05:24:20;2.50;99.90
56374;DHT22;58212;47.034;7.376;2022-12-10T05:26:48;2.50;99.90
56374;DHT22;58212;47.034;7.376;2022-12-10T05:29:17;2.50;99.90
56374;DHT22;58212;47.034;7.376;2022-12-10T05:31:46;2.50;99.90
56374;DHT22;58212;47.034;7.376;2022-12-10T05:34:13;2.40;99.90
56374;DHT22;58212;47.034;7.376;2022-12-10T05:36:41;2.30;99.90
56374;DHT22;58212;47.034;7.376;2022-12-10T05:39:09;2.30;99.90
56374;DHT22;58212;47.034;7.376;2022-12-10T05:41:38;2.30;99.90
56374;DHT22;58212;47.034;7.376;2022-12-10T05:44:08;2.30;99.90
56374;DHT22;58212;47.034;7.376;2022-12-10T05:46:35;2.30;99.90
56374;DHT22;58212;47.034;7.376;2022-12-10T05:49:04;2.40;99.90
56374;DHT22;58212;47.034;7.376;2022-12-10T05:51:33;2.40;99.90
56374;DHT22;58212;47.034;7.376;2022-12-10T05:54:01;2.40;99.90
56374;DHT22;58212;47.034;7.376;2022-12-10T05:56:29;2.40;99.90
56374;DHT22;58212;47.034;7.376;2022-12-10T05:58:58;2.40;99.90
56374;DHT22;58212;47.034;7.376;2022-12-10T06:01:29;2.30;99.90
56374;DHT22;58212;47.034;7.376;2022-12-10T06:03:57;2.30;99.90
56374;DHT22;58212;47.034;7.376;2022-12-10T06:06:25;2.30;99.90
56374;DHT22;58212;47.034;7.376;2022-12-10T06:08:53;2.30;99.90
56374;DHT22;58212;47.034;7.376;2022-12-10T06:11:21;2.40;99.90
56374;DHT22;58212;47.034;7.376;2022-12-10T06:13:48;2.30;99.90
56374;DHT22;58212;47.034;7.376;2022-12-10T06:16:16;2.30;99.90
56374;DHT22;58212;47.034;7.376;2022-12-10T06:18:44;2.30;99.90
56374;DHT22;58212;47.034;7.376;2022-12-10T06:21:13;2.20;99.90
56374;DHT22;58212;47.034;7.376;2022-12-10T06:23:41;2.20;99.90
56374;DHT22;58212;47.034;7.376;2022-12-10T06:26:11;2.20;99.90
56374;DHT22;58212;47.034;7.376;2022-12-10T06:28:38;2.30;99.90
56374;DHT22;58212;47.034;7.376;2022-12-10T06:31:05;2.30;99.90
56374;DHT22;58212;47.034;7.376;2022-12-10T06:33:33;2.40;99.90
56374;DHT22;58212;47.034;7.376;2022-12-10T06:36:03;2.40;99.90
56374;DHT22;58212;47.034;7.376;2022-12-10T06:38:30;2.30;99.90
56374;DHT22;58212;47.034;7.376;2022-12-10T06:40:58;2.30;99.90
56374;DHT22;58212;47.034;7.376;2022-12-10T06:43:28;2.30;99.90
56374;DHT22;58212;47.034;7.376;2022-12-10T06:45:55;2.30;99.90
56374;DHT22;58212;47.034;7.376;2022-12-10T06:48:22;2.40;99.90
56374;DHT22;58212;47.034;7.376;2022-12-10T06:50:52;2.30;99.90
56374;DHT22;58212;47.034;7.376;2022-12-10T06:53:20;2.30;99.90
56374;DHT22;58212;47.034;7.376;2022-12-10T06:55:47;2.30;99.90
56374;DHT22;58212;47.034;7.376;2022-12-10T06:58:14;2.30;99.90
56374;DHT22;58212;47.034;7.376;2022-12-10T07:00:41;2.50;99.90
56374;DHT22;58212;47.034;7.376;2022-12-10T07:03:08;2.40;99.90
56374;DHT22;58212;47.034;7.376;2022-12-10T07:05:35;2.40;99.90
56374;DHT22;58212;47.034;7.376;2022-12-10T07:08:02;2.30;99.90
56374;DHT22;58212;47.034;7.376;2022-12-10T07:10:30;2.10;99.90
56374;DHT22;58212;47.034;7.376;2022-12-10T07:12:57;2.20;99.90
56374;DHT22;58212;47.034;7.376;2022-12-10T07:15:25;2.20;99.90
56374;DHT22;58212;47.034;7.376;2022-12-10T07:17:54;2.30;99.90
56374;DHT22;58212;47.034;7.376;2022-12-10T07:20:21;2.40;99.90
56374;DHT22;58212;47.034;7.376;2022-12-10T07:22:48;2.40;99.90
56374;DHT22;58212;47.034;7.376;2022-12-10T07:25:15;2.10;99.90
56374;DHT22;58212;47.034;7.376;2022-12-10T07:27:43;2.20;99.90
56374;DHT22;58212;47.034;7.376;2022-12-10T07:30:11;2.10;99.90
56374;DHT22;58212;47.034;7.376;2022-12-10T07:32:38;2.10;99.90
56374;DHT22;58212;47.034;7.376;2022-12-10T07:35:06;2.30;99.90
56374;DHT22;58212;47.034;7.376;2022-12-10T07:37:33;2.20;99.90
56374;DHT22;58212;47.034;7.376;2022-12-10T07:40:00;2.30;99.90
56374;DHT22;58212;47.034;7.376;2022-12-10T07:42:28;2.30;99.90
56374;DHT22;58212;47.034;7.376;2022-12-10T07:44:56;2.40;99.90
56374;DHT22;58212;47.034;7.376;2022-12-10T07:47:23;2.60;99.90
56374;DHT22;58212;47.034;7.376;2022-12-10T07:49:51;2.70;99.90
56374;DHT22;58212;47.034;7.376;2022-12-10T07:52:18;2.60;99.90
56374;DHT22;58212;47.034;7.376;2022-12-10T07:54:45;2.30;99.90
56374;DHT22;58212;47.034;7.376;2022-12-10T07:57:15;2.30;99.90
56374;DHT22;58212;47.034;7.376;2022-12-10T07:59:42;2.30;99.90
56374;DHT22;58212;47.034;7.376;2022-12-10T08:02:10;2.20;99.90
56374;DHT22;58212;47.034;7.376;2022-12-10T08:04:37;2.30;99.90
56374;DHT22;58212;47.034;7.376;2022-12-10T08:07:04;2.10;99.90
56374;DHT22;58212;47.034;7.376;2022-12-10T08:09:33;2.20;99.90
56374;DHT22;58212;47.034;7.376;2022-12-10T08:12:00;2.40;99.90
56374;DHT22;58212;47.034;7.376;2022-12-10T08:14:27;2.30;99.90
56374;DHT22;58212;47.034;7.376;2022-12-10T08:16:54;2.50;99.90
56374;DHT22;58212;47.034;7.376;2022-12-10T08:19:23;2.00;99.90
56374;DHT22;58212;47.034;7.376;2022-12-10T08:21:53;1.90;99.90
56374;DHT22;58212;47.034;7.376;2022-12-10T08:24:20;2.30;99.90
56374;DHT22;58212;47.034;7.376;2022-12-10T08:26:47;2.50;99.90
56374;DHT22;58212;47.034;7.376;2022-12-10T08:29:18;2.50;99.90
56374;DHT22;58212;47.034;7.376;2022-12-10T08:31:45;2.50;99.90
56374;DHT22;58212;47.034;7.376;2022-12-10T08:34:12;2.70;99.90
56374;DHT22;58212;47.034;7.376;2022-12-10T08:36:41;2.60;99.90
56374;DHT22;58212;47.034;7.376;2022-12-10T08:39:09;2.50;99.90
56374;DHT22;58212;47.034;7.376;2022-12-10T08:41:41;2.50;99.90
56374;DHT22;58212;47.034;7.376;2022-12-10T08:44:08;2.60;99.90
56374;DHT22;58212;47.034;7.376;2022-12-10T08:46:35;2.70;99.90
56374;DHT22;58212;47.034;7.376;2022-12-10T08:49:03;2.60;99.90
56374;DHT22;58212;47.034;7.376;2022-12-10T08:51:30;2.50;99.90
56374;DHT22;58212;47.034;7.376;2022-12-10T08:53:58;2.40;99.90
56374;DHT22;58212;47.034;7.376;2022-12-10T08:56:25;2.60;99.90
56374;DHT22;58212;47.034;7.376;2022-12-10T08:58:52;2.40;99.90
56374;DHT22;58212;47.034;7.376;2022-12-10T09:01:19;2.10;99.90
56374;DHT22;58212;47.034;7.376;2022-12-10T09:03:46;2.10;99.90
56374;DHT22;58212;47.034;7.376;2022-12-10T09:06:15;2.30;99.90
56374;DHT22;58212;47.034;7.376;2022-12-10T09:08:43;2.40;99.90
56374;DHT22;58212;47.034;7.376;2022-12-10T09:11:14;2.40;99.90
56374;DHT22;58212;47.034;7.376;2022-12-10T09:13:41;2.00;99.90
56374;DHT22;58212;47.034;7.376;2022-12-10T09:16:09;2.10;99.90
56374;DHT22;58212;47.034;7.376;2022-12-10T09:18:36;1.90;99.90
56374;DHT22;58212;47.034;7.376;2022-12-10T09:21:05;2.40;99.90
56374;DHT22;58212;47.034;7.376;2022-12-10T09:23:35;2.50;99.90
56374;DHT22;58212;47.034;7.376;2022-12-10T09:26:05;2.40;99.90
56374;DHT22;58212;47.034;7.376;2022-12-10T09:28:35;2.10;99.90
56374;DHT22;58212;47.034;7.376;2022-12-10T09:31:03;2.20;99.90
56374;DHT22;58212;47.034;7.376;2022-12-10T09:33:31;2.30;99.90
56374;DHT22;58212;47.034;7.376;2022-12-10T09:35:59;2.10;99.90
56374;DHT22;58212;47.034;7.376;2022-12-10T09:38:26;2.30;99.90
56374;DHT22;58212;47.034;7.376;2022-12-10T09:40:59;2.20;99.90
56374;DHT22;58212;47.034;7.376;2022-12-10T09:43:38;2.00;99.90
56374;DHT22;58212;47.034;7.376;2022-12-10T09:46:15;1.90;99.90
56374;DHT22;58212;47.034;7.376;2022-12-10T09:48:54;2.10;99.90
56374;DHT22;58212;47.034;7.376;2022-12-10T09:51:25;2.10;99.90
56374;DHT22;58212;47.034;7.376;2022-12-10T09:53:55;2.30;99.90
56374;DHT22;58212;47.034;7.376;2022-12-10T09:56:29;2.40;99.90
56374;DHT22;58212;47.034;7.376;2022-12-10T09:59:02;2.50;99.90
56374;DHT22;58212;47.034;7.376;2022-12-10T10:01:34;2.10;99.90
56374;DHT22;58212;47.034;7.376;2022-12-10T10:04:03;2.40;99.90
56374;DHT22;58212;47.034;7.376;2022-12-10T10:06:30;2.20;99.90
56374;DHT22;58212;47.034;7.376;2022-12-10T10:09:00;2.10;99.90
56374;DHT22;58212;47.034;7.376;2022-12-10T10:11:30;2.20;99.90
56374;DHT22;58212;47.034;7.376;2022-12-10T10:14:03;2.50;99.90
56374;DHT22;58212;47.034;7.376;2022-12-10T10:16:33;2.50;99.90
56374;DHT22;58212;47.034;7.376;2022-12-10T10:19:02;2.30;99.90
56374;DHT22;58212;47.034;7.376;2022-12-10T10:21:36;2.40;99.90
56374;DHT22;58212;47.034;7.376;2022-12-10T10:24:06;2.30;99.90
56374;DHT22;58212;47.034;7.376;2022-12-10T10:26:35;2.10;99.90
56374;DHT22;58212;47.034;7.376;2022-12-10T10:29:06;2.30;99.90
56374;DHT22;58212;47.034;7.376;2022-12-10T10:31:35;2.50;99.90
56374;DHT22;58212;47.034;7.376;2022-12-10T10:34:14;2.50;99.90
56374;DHT22;58212;47.034;7.376;2022-12-10T10:36:43;2.50;99.90
56374;DHT22;58212;47.034;7.376;2022-12-10T10:39:18;2.70;99.90
56374;DHT22;58212;47.034;7.376;2022-12-10T10:41:53;2.40;99.90
56374;DHT22;58212;47.034;7.376;2022-12-10T10:44:23;1.90;99.90
56374;DHT22;58212;47.034;7.376;2022-12-10T10:46:53;1.80;99.90
56374;DHT22;58212;47.034;7.376;2022-12-10T10:49:23;1.90;99.90
56374;DHT22;58212;47.034;7.376;2022-12-10T10:51:52;2.20;99.90
56374;DHT22;58212;47.034;7.376;2022-12-10T10:54:33;2.40;99.90
56374;DHT22;58212;47.034;7.376;2022-12-10T10:57:06;2.40;99.90
56374;DHT22;58212;47.034;7.376;2022-12-10T10:59:38;2.30;99.90
56374;DHT22;58212;47.034;7.376;2022-12-10T11:02:20;2.30;99.90
56374;DHT22;58212;47.034;7.376;2022-12-10T11:04:49;2.30;99.90
56374;DHT22;58212;47.034;7.376;2022-12-10T11:07:22;2.30;99.90
56374;DHT22;58212;47.034;7.376;2022-12-10T11:09:52;2.40;99.90
56374;DHT22;58212;47.034;7.376;2022-12-10T11:12:34;2.40;99.90
56374;DHT22;58212;47.034;7.376;2022-12-10T11:15:30;2.30;99.90
56374;DHT22;58212;47.034;7.376;2022-12-10T11:18:00;2.30;99.90
56374;DHT22;58212;47.034;7.376;2022-12-10T11:20:29;2.40;99.90
56374;DHT22;58212;47.034;7.376;2022-12-10T11:22:58;2.10;99.90
56374;DHT22;58212;47.034;7.376;2022-12-10T11:25:35;1.90;99.90
56374;DHT22;58212;47.034;7.376;2022-12-10T11:28:11;2.00;99.90
56374;DHT22;58212;47.034;7.376;2022-12-10T11:30:47;2.40;99.90
56374;DHT22;58212;47.034;7.376;2022-12-10T11:33:23;2.50;99.90
56374;DHT22;58212;47.034;7.376;2022-12-10T11:36:02;2.40;99.90
56374;DHT22;58212;47.034;7.376;2022-12-10T11:38:39;2.40;99.90
56374;DHT22;58212;47.034;7.376;2022-12-10T11:41:18;2.40;99.90
56374;DHT22;58212;47.034;7.376;2022-12-10T11:44:04;2.40;99.90
56374;DHT22;58212;47.034;7.376;2022-12-10T11:46:55;2.60;99.90
56374;DHT22;58212;47.034;7.376;2022-12-10T11:49:30;2.60;99.90
56374;DHT22;58212;47.034;7.376;2022-12-10T11:52:05;2.60;99.90
56374;DHT22;58212;47.034;7.376;2022-12-10T11:54:46;2.40;99.90
56374;DHT22;58212;47.034;7.376;2022-12-10T11:57:23;2.50;99.90
56374;DHT22;58212;47.034;7.376;2022-12-10T12:00:00;2.70;99.90
56374;DHT22;58212;47.034;7.376;2022-12-10T12:02:52;2.70;99.90
56374;DHT22;58212;47.034;7.376;2022-12-10T12:05:41;2.40;99.90
56374;DHT22;58212;47.034;7.376;2022-12-10T12:08:19;2.50;99.90
56374;DHT22;58212;47.034;7.376;2022-12-10T12:11:00;2.60;99.90
56374;DHT22;58212;47.034;7.376;2022-12-10T12:13:34;2.60;99.90
56374;DHT22;58212;47.034;7.376;2022-12-10T12:16:08;2.60;99.90
56374;DHT22;58212;47.034;7.376;2022-12-10T12:18:43;2.50;99.90
56374;DHT22;58212;47.034;7.376;2022-12-10T12:21:14;2.50;99.90
56374;DHT22;58212;47.034;7.376;2022-12-10T12:23:47;2.70;99.90
56374;DHT22;58212;47.034;7.376;2022-12-10T12:26:20;2.60;99.90
56374;DHT22;58212;47.034;7.376;2022-12-10T12:28:53;2.60;99.90
56374;DHT22;58212;47.034;7.376;2022-12-10T12:31:25;2.60;99.90
56374;DHT22;58212;47.034;7.376;2022-12-10T12:34:05;2.40;99.90
56374;DHT22;58212;47.034;7.376;2022-12-10T12:36:37;2.40;99.90
56374;DHT22;58212;47.034;7.376;2022-12-10T12:39:10;2.50;99.90
56374;DHT22;58212;47.034;7.376;2022-12-10T12:41:43;2.60;99.90
56374;DHT22;58212;47.034;7.376;2022-12-10T12:44:17;2.60;99.90
56374;DHT22;58212;47.034;7.376;2022-12-10T12:46:48;2.60;99.90
56374;DHT22;58212;47.034;7.376;2022-12-10T12:49:25;2.60;99.90
56374;DHT22;58212;47.034;7.376;2022-12-10T12:52:00;2.70;99.90
56374;DHT22;58212;47.034;7.376;2022-12-10T12:54:27;2.60;99.90
56374;DHT22;58212;47.034;7.376;2022-12-10T12:57:04;2.60;99.90
56374;DHT22;58212;47.034;7.376;2022-12-10T12:59:50;2.60;99.90
56374;DHT22;58212;47.034;7.376;2022-12-10T13:05:16;2.60;99.90
56374;DHT22;58212;47.034;7.376;2022-12-10T13:11:18;2.40;99.90
56374;DHT22;58212;47.034;7.376;2022-12-10T13:14:12;2.50;99.90
56374;DHT22;58212;47.034;7.376;2022-12-10T13:17:00;2.30;99.90
56374;DHT22;58212;47.034;7.376;2022-12-10T13:19:30;2.50;99.90
56374;DHT22;58212;47.034;7.376;2022-12-10T13:22:07;2.60;99.90
56374;DHT22;58212;47.034;7.376;2022-12-10T13:24:59;2.50;99.90
56374;DHT22;58212;47.034;7.376;2022-12-10T13:27:30;2.50;99.90
56374;DHT22;58212;47.034;7.376;2022-12-10T13:30:01;2.50;99.90
56374;DHT22;58212;47.034;7.376;2022-12-10T13:32:43;2.50;99.90
56374;DHT22;58212;47.034;7.376;2022-12-10T13:35:29;2.50;99.90
56374;DHT22;58212;47.034;7.376;2022-12-10T13:38:05;2.40;99.90
56374;DHT22;58212;47.034;7.376;2022-12-10T13:40:42;2.40;99.90
56374;DHT22;58212;47.034;7.376;2022-12-10T13:43:35;2.30;99.90
56374;DHT22;58212;47.034;7.376;2022-12-10T13:46:31;2.30;99.90
56374;DHT22;58212;47.034;7.376;2022-12-10T13:48:59;2.40;99.90
56374;DHT22;58212;47.034;7.376;2022-12-10T13:51:48;2.30;99.90
56374;DHT22;58212;47.034;7.376;2022-12-10T13:57:32;2.60;99.90
56374;DHT22;58212;47.034;7.376;2022-12-10T14:00:08;2.50;99.90
56374;DHT22;58212;47.034;7.376;2022-12-10T14:03:00;2.40;99.90
56374;DHT22;58212;47.034;7.376;2022-12-10T14:05:53;2.50;99.90
56374;DHT22;58212;47.034;7.376;2022-12-10T14:08:27;2.40;99.90
56374;DHT22;58212;47.034;7.376;2022-12-10T14:10:58;2.50;99.90
56374;DHT22;58212;47.034;7.376;2022-12-10T14:13:31;2.50;99.90
56374;DHT22;58212;47.034;7.376;2022-12-10T14:16:01;2.40;99.90
56374;DHT22;58212;47.034;7.376;2022-12-10T14:18:29;2.50;99.90
56374;DHT22;58212;47.034;7.376;2022-12-10T14:20:56;2.50;99.90
56374;DHT22;58212;47.034;7.376;2022-12-10T14:23:26;2.50;99.90
56374;DHT22;58212;47.034;7.376;2022-12-10T14:26:06;2.40;99.90
56374;DHT22;58212;47.034;7.376;2022-12-10T14:28:38;2.40;99.90
56374;DHT22;58212;47.034;7.376;2022-12-10T14:31:15;2.50;99.90
56374;DHT22;58212;47.034;7.376;2022-12-10T14:33:44;2.40;99.90
56374;DHT22;58212;47.034;7.376;2022-12-10T14:36:20;2.30;99.90
56374;DHT22;58212;47.034;7.376;2022-12-10T14:38:49;2.30;99.90
56374;DHT22;58212;47.034;7.376;2022-12-10T14:41:21;2.10;99.90
56374;DHT22;58212;47.034;7.376;2022-12-10T14:43:49;2.10;99.90
56374;DHT22;58212;47.034;7.376;2022-12-10T14:46:18;2.30;99.90
56374;DHT22;58212;47.034;7.376;2022-12-10T14:48:49;2.30;99.90
56374;DHT22;58212;47.034;7.376;2022-12-10T14:51:20;2.30;99.90
56374;DHT22;58212;47.034;7.376;2022-12-10T14:53:48;2.30;99.90
56374;DHT22;58212;47.034;7.376;2022-12-10T14:56:21;2.30;99.90
56374;DHT22;58212;47.034;7.376;2022-12-10T14:58:53;2.30;99.90
56374;DHT22;58212;47.034;7.376;2022-12-10T15:01:27;2.50;99.90
56374;DHT22;58212;47.034;7.376;2022-12-10T15:03:56;2.50;99.90
56374;DHT22;58212;47.034;7.376;2022-12-10T15:06:24;2.50;99.90
56374;DHT22;58212;47.034;7.376;2022-12-10T15:08:54;2.50;99.90
56374;DHT22;58212;47.034;7.376;2022-12-10T15:11:24;2.50;99.90
56374;DHT22;58212;47.034;7.376;2022-12-10T15:13:57;2.40;99.90
56374;DHT22;58212;47.034;7.376;2022-12-10T15:16:31;2.30;99.90
56374;DHT22;58212;47.034;7.376;2022-12-10T15:19:18;2.30;99.90
56374;DHT22;58212;47.034;7.376;2022-12-10T15:21:47;2.40;99.90
56374;DHT22;58212;47.034;7.376;2022-12-10T15:24:18;2.30;99.90
56374;DHT22;58212;47.034;7.376;2022-12-10T15:26:48;2.40;99.90
56374;DHT22;58212;47.034;7.376;2022-12-10T15:29:33;2.30;99.90
56374;DHT22;58212;47.034;7.376;2022-12-10T15:32:05;2.30;99.90
56374;DHT22;58212;47.034;7.376;2022-12-10T15:34:40;2.30;99.90
56374;DHT22;58212;47.034;7.376;2022-12-10T15:37:19;2.20;99.90
56374;DHT22;58212;47.034;7.376;2022-12-10T15:39:50;2.20;99.90
56374;DHT22;58212;47.034;7.376;2022-12-10T15:42:36;2.20;99.90
56374;DHT22;58212;47.034;7.376;2022-12-10T15:45:16;2.20;99.90
56374;DHT22;58212;47.034;7.376;2022-12-10T15:47:45;2.10;99.90
56374;DHT22;58212;47.034;7.376;2022-12-10T15:50:12;2.10;99.90
56374;DHT22;58212;47.034;7.376;2022-12-10T15:52:40;2.10;99.90
56374;DHT22;58212;47.034;7.376;2022-12-10T15:55:07;2.20;99.90
56374;DHT22;58212;47.034;7.376;2022-12-10T15:57:37;2.10;99.90
56374;DHT22;58212;47.034;7.376;2022-12-10T16:00:10;2.10;99.90
56374;DHT22;58212;47.034;7.376;2022-12-10T16:02:44;2.10;99.90
56374;DHT22;58212;47.034;7.376;2022-12-10T16:05:14;2.10;99.90
56374;DHT22;58212;47.034;7.376;2022-12-10T16:07:42;2.20;99.90
56374;DHT22;58212;47.034;7.376;2022-12-10T16:10:10;2.10;99.90
56374;DHT22;58212;47.034;7.376;2022-12-10T16:12:39;2.00;99.90
56374;DHT22;58212;47.034;7.376;2022-12-10T16:15:11;2.00;99.90
56374;DHT22;58212;47.034;7.376;2022-12-10T16:17:38;2.10;99.90
56374;DHT22;58212;47.034;7.376;2022-12-10T16:20:18;2.10;99.90
56374;DHT22;58212;47.034;7.376;2022-12-10T16:22:45;2.10;99.90
56374;DHT22;58212;47.034;7.376;2022-12-10T16:25:13;1.90;99.90